createdAt,value
2023-05-04T00:00:10.481Z,22.70
2023-05-04T00:02:37.347Z,23.70
2023-05-04T00:05:06.131Z,23.88
2023-05-04T00:07:33.065Z,21.35
2023-05-04T00:10:01.181Z,20.58
2023-05-04T00:12:28.439Z,20.42
2023-05-04T00:14:55.281Z,20.67
2023-05-04T00:17:22.044Z,17.58
2023-05-04T00:19:48.808Z,18.83
2023-05-04T00:22:15.865Z,19.75
2023-05-04T00:24:44.160Z,18.77
2023-05-04T00:27:11.039Z,21.55
2023-05-04T00:29:38.039Z,18.65
2023-05-04T00:32:05.122Z,15.02
2023-05-04T00:34:34.146Z,18.55
2023-05-04T00:37:01.192Z,18.83
2023-05-04T00:39:27.978Z,16.30
2023-05-04T00:41:54.768Z,16.52
2023-05-04T00:44:23.779Z,16.67
2023-05-04T00:46:55.295Z,19.23
2023-05-04T00:49:23.134Z,16.08
2023-05-04T00:51:51.351Z,15.18
2023-05-04T00:54:20.731Z,19.33
2023-05-04T00:56:47.870Z,14.82
2023-05-04T00:59:14.667Z,16.63
2023-05-04T01:01:42.112Z,16.95
2023-05-04T01:04:09.286Z,16.35
2023-05-04T01:06:45.392Z,13.07
2023-05-04T01:09:37.910Z,12.85
2023-05-04T01:12:17.169Z,12.30
2023-05-04T01:14:44.488Z,11.55
2023-05-04T01:17:11.948Z,13.85
2023-05-04T01:19:38.810Z,16.92
2023-05-04T01:22:05.587Z,16.83
2023-05-04T01:24:32.742Z,14.30
2023-05-04T01:27:08.548Z,15.95
2023-05-04T01:29:45.225Z,17.65
2023-05-04T01:32:14.894Z,18.00
2023-05-04T01:34:42.174Z,21.35
2023-05-04T01:37:08.979Z,20.48
2023-05-04T01:39:35.785Z,18.52
2023-05-04T01:42:02.580Z,19.85
2023-05-04T01:44:29.381Z,22.98
2023-05-04T01:46:56.173Z,21.73
2023-05-04T01:49:23.085Z,21.25
2023-05-04T01:51:50.490Z,22.33
2023-05-04T01:54:17.220Z,21.85
2023-05-04T01:56:43.997Z,21.95
2023-05-04T01:59:10.811Z,22.15
2023-05-04T02:01:38.693Z,22.33
2023-05-04T02:04:06.007Z,25.35
2023-05-04T02:06:33.892Z,23.95
2023-05-04T02:09:00.747Z,29.05
2023-05-04T02:11:27.616Z,27.52
2023-05-04T02:13:54.356Z,27.05
2023-05-04T02:16:21.479Z,24.77
2023-05-04T02:18:48.262Z,25.65
2023-05-04T02:21:14.967Z,26.60
2023-05-04T02:23:41.662Z,30.65
2023-05-04T02:26:09.672Z,30.40
2023-05-04T02:28:36.378Z,29.55
2023-05-04T02:31:03.251Z,28.95
2023-05-04T02:33:30.096Z,27.83
2023-05-04T02:35:56.941Z,29.55
2023-05-04T02:38:23.629Z,28.92
2023-05-04T02:40:50.365Z,31.13
2023-05-04T02:43:17.372Z,30.60
2023-05-04T02:45:44.177Z,29.42
2023-05-04T02:48:11.034Z,29.33
2023-05-04T02:50:39.178Z,30.50
2023-05-04T02:53:05.911Z,30.25
2023-05-04T02:55:32.640Z,28.67
2023-05-04T02:57:59.456Z,32.83
2023-05-04T03:00:26.207Z,30.25
2023-05-04T03:02:53.244Z,35.88
2023-05-04T03:05:20.518Z,28.00
2023-05-04T03:07:47.265Z,33.35
2023-05-04T03:10:14.126Z,28.05
2023-05-04T03:12:41.090Z,30.08
2023-05-04T03:15:08.627Z,29.17
2023-05-04T03:17:35.471Z,29.48
2023-05-04T03:20:02.440Z,31.52
2023-05-04T03:22:29.304Z,28.02
2023-05-04T03:24:56.134Z,28.40
2023-05-04T03:27:22.784Z,30.23
2023-05-04T03:29:49.480Z,33.42
2023-05-04T03:32:16.308Z,31.35
2023-05-04T03:34:43.156Z,28.45
2023-05-04T03:37:09.921Z,30.85
2023-05-04T03:39:36.640Z,30.65
2023-05-04T03:42:04.609Z,32.35
2023-05-04T03:44:31.380Z,29.67
2023-05-04T03:46:58.118Z,35.33
2023-05-04T03:49:24.835Z,31.48
2023-05-04T03:51:51.756Z,31.33
2023-05-04T03:54:18.557Z,30.05
2023-05-04T03:56:45.579Z,33.92
2023-05-04T03:59:12.289Z,30.67
2023-05-04T04:01:39.024Z,31.85
2023-05-04T04:04:06.014Z,34.08
2023-05-04T04:06:32.890Z,32.00
2023-05-04T04:08:59.793Z,31.42
2023-05-04T04:11:26.697Z,36.13
2023-05-04T04:13:53.730Z,38.28
2023-05-04T04:16:21.294Z,34.08
2023-05-04T04:18:48.540Z,33.67
2023-05-04T04:21:15.317Z,30.88
2023-05-04T04:23:42.198Z,40.45
2023-05-04T04:26:09.342Z,28.55
2023-05-04T04:28:36.181Z,30.65
2023-05-04T04:31:04.551Z,33.15
2023-05-04T04:33:31.318Z,29.60
2023-05-04T04:35:58.015Z,30.38
2023-05-04T04:38:24.929Z,30.38
2023-05-04T04:40:51.725Z,29.60
2023-05-04T04:43:18.489Z,29.30
2023-05-04T04:45:45.751Z,30.80
2023-05-04T04:48:12.846Z,27.10
2023-05-04T04:50:40.259Z,27.90
2023-05-04T04:53:07.152Z,29.58
2023-05-04T04:55:35.609Z,28.70
2023-05-04T04:58:02.584Z,25.83
2023-05-04T05:00:29.883Z,28.83
2023-05-04T05:02:56.716Z,26.15
2023-05-04T05:05:23.550Z,24.40
2023-05-04T05:07:50.323Z,26.75
2023-05-04T05:10:17.322Z,22.58
2023-05-04T05:12:44.397Z,20.75
2023-05-04T05:15:11.483Z,20.88
2023-05-04T05:17:38.221Z,22.30
2023-05-04T05:20:12.225Z,23.27
2023-05-04T05:22:40.198Z,20.15
2023-05-04T05:25:10.619Z,17.00
2023-05-04T05:30:06.390Z,16.80
2023-05-04T05:32:33.697Z,13.32
2023-05-04T05:35:00.730Z,15.48
2023-05-04T05:37:27.760Z,9.38
2023-05-04T05:39:54.556Z,13.45
2023-05-04T05:42:21.379Z,9.10
2023-05-04T05:44:48.212Z,14.18
2023-05-04T05:47:15.003Z,9.05
2023-05-04T05:49:43.082Z,11.82
2023-05-04T05:52:11.642Z,11.00
2023-05-04T05:54:38.356Z,12.02
2023-05-04T05:57:05.295Z,8.07
2023-05-04T05:59:32.120Z,10.48
2023-05-04T06:01:58.970Z,8.45
2023-05-04T06:04:25.918Z,15.77
2023-05-04T06:06:52.894Z,11.63
2023-05-04T06:09:19.677Z,9.82
2023-05-04T06:11:46.499Z,8.85
2023-05-04T06:14:13.352Z,7.90
2023-05-04T06:16:40.290Z,7.88
2023-05-04T06:19:07.295Z,9.05
2023-05-04T06:21:34.024Z,6.68
2023-05-04T06:24:00.842Z,6.65
2023-05-04T06:26:27.632Z,8.57
2023-05-04T06:28:54.333Z,4.90
2023-05-04T06:31:21.150Z,5.63
2023-05-04T06:33:48.752Z,6.25
2023-05-04T06:36:15.451Z,7.25
2023-05-04T06:38:42.174Z,7.90
2023-05-04T06:41:08.986Z,5.63
2023-05-04T06:43:36.810Z,4.35
2023-05-04T06:46:04.232Z,4.72
2023-05-04T06:48:31.718Z,6.55
2023-05-04T06:51:00.077Z,5.85
2023-05-04T06:53:29.262Z,6.75
2023-05-04T06:55:56.074Z,6.68
2023-05-04T06:58:23.508Z,6.65
2023-05-04T07:00:50.963Z,4.93
2023-05-04T07:03:17.961Z,6.93
2023-05-04T07:05:45.396Z,4.35
2023-05-04T07:08:12.640Z,9.88
2023-05-04T07:10:39.593Z,9.20
2023-05-04T07:13:06.971Z,4.80
2023-05-04T07:15:33.991Z,5.68
2023-05-04T07:18:01.412Z,6.95
2023-05-04T07:20:28.447Z,5.95
2023-05-04T07:22:57.078Z,8.38
2023-05-04T07:25:25.230Z,7.18
2023-05-04T07:27:52.415Z,5.55
2023-05-04T07:30:21.884Z,5.65
2023-05-04T07:32:48.702Z,5.57
2023-05-04T07:35:15.576Z,8.32
2023-05-04T07:37:42.351Z,4.22
2023-05-04T07:40:10.468Z,5.70
2023-05-04T07:42:37.668Z,6.90
2023-05-04T07:45:05.032Z,3.58
2023-05-04T07:47:32.152Z,5.80
2023-05-04T07:49:59.080Z,5.05
2023-05-04T07:52:25.920Z,4.63
2023-05-04T07:54:53.563Z,6.00
2023-05-04T07:57:21.808Z,3.15
2023-05-04T07:59:48.571Z,5.70
2023-05-04T08:02:15.839Z,5.70
2023-05-04T08:04:42.643Z,6.95
2023-05-04T08:07:09.614Z,6.07
2023-05-04T08:09:37.738Z,7.47
2023-05-04T08:12:04.640Z,5.55
2023-05-04T08:14:31.371Z,13.40
2023-05-04T08:16:58.329Z,4.38
2023-05-04T08:19:25.914Z,4.30
2023-05-04T08:21:53.109Z,6.07
2023-05-04T08:24:19.931Z,11.95
2023-05-04T08:26:55.612Z,7.00
2023-05-04T08:29:26.805Z,5.32
2023-05-04T08:31:56.403Z,7.00
2023-05-04T08:34:23.309Z,6.47
2023-05-04T08:36:50.087Z,6.95
2023-05-04T08:39:18.564Z,4.78
2023-05-04T08:41:45.317Z,7.70
2023-05-04T08:44:12.095Z,3.72
2023-05-04T08:46:40.783Z,7.57
2023-05-04T08:49:07.766Z,8.27
2023-05-04T08:51:37.219Z,8.98
2023-05-04T08:54:10.936Z,5.40
2023-05-04T08:56:40.319Z,7.28
2023-05-04T08:59:09.776Z,4.97
2023-05-04T09:01:38.609Z,7.23
2023-05-04T09:04:05.897Z,8.07
2023-05-04T09:06:32.788Z,7.18
2023-05-04T09:08:59.533Z,5.97
2023-05-04T09:11:26.300Z,7.15
2023-05-04T09:13:53.414Z,8.25
2023-05-04T09:16:20.315Z,6.63
2023-05-04T09:18:47.741Z,5.35
2023-05-04T09:21:14.543Z,6.25
2023-05-04T09:23:53.979Z,6.22
2023-05-04T09:26:28.684Z,6.93
2023-05-04T09:28:56.042Z,8.55
2023-05-04T09:31:26.302Z,5.97
2023-05-04T09:36:21.940Z,8.18
2023-05-04T09:38:49.023Z,5.40
2023-05-04T09:41:16.344Z,5.85
2023-05-04T09:43:44.927Z,6.72
2023-05-04T09:46:18.809Z,10.63
2023-05-04T09:48:53.010Z,5.38
2023-05-04T09:51:22.377Z,6.63
2023-05-04T09:53:52.799Z,6.93
2023-05-04T09:56:26.767Z,8.27
2023-05-04T09:58:57.810Z,6.95
2023-05-04T10:01:27.879Z,5.13
2023-05-04T10:03:55.237Z,9.02
2023-05-04T10:06:22.653Z,7.35
2023-05-04T10:08:50.931Z,6.50
2023-05-04T10:11:19.232Z,5.25
2023-05-04T10:13:47.046Z,8.82
2023-05-04T10:16:24.518Z,5.20
2023-05-04T10:19:10.542Z,6.25
2023-05-04T10:21:42.356Z,5.68
2023-05-04T10:24:21.646Z,6.82
2023-05-04T10:27:05.275Z,5.57
2023-05-04T10:29:35.924Z,8.65
2023-05-04T10:32:03.406Z,5.07
2023-05-04T10:34:31.684Z,8.05
2023-05-04T10:36:59.627Z,9.75
2023-05-04T10:39:31.016Z,6.43
2023-05-04T10:42:02.107Z,9.13
2023-05-04T10:44:29.664Z,5.43
2023-05-04T10:46:59.560Z,5.35
2023-05-04T10:52:06.553Z,8.05
2023-05-04T10:54:34.083Z,4.57
2023-05-04T10:57:04.933Z,5.20
2023-05-04T10:59:32.803Z,4.85
2023-05-04T11:02:01.932Z,5.80
2023-05-04T11:04:29.309Z,6.03
2023-05-04T11:07:06.734Z,10.05
2023-05-04T11:09:38.339Z,8.52
2023-05-04T11:12:05.754Z,7.68
2023-05-04T11:14:37.618Z,3.58
2023-05-04T11:17:27.612Z,44.20
2023-05-04T11:19:57.552Z,9.77
2023-05-04T11:22:24.963Z,6.30
2023-05-04T11:24:52.846Z,17.63
2023-05-04T11:27:23.208Z,8.27
2023-05-04T11:29:54.440Z,8.10
2023-05-04T11:32:21.589Z,24.90
2023-05-04T11:34:48.933Z,105.00
2023-05-04T11:37:16.004Z,15.15
2023-05-04T11:39:43.103Z,14.07
2023-05-04T11:42:10.391Z,18.70
2023-05-04T11:44:38.168Z,19.92
2023-05-04T11:47:05.411Z,45.63
2023-05-04T11:49:32.824Z,81.32
2023-05-04T11:52:09.549Z,11.70
2023-05-04T11:54:40.599Z,7.80
2023-05-04T11:57:07.983Z,10.40
2023-05-04T11:59:35.104Z,9.77
2023-05-04T12:02:02.249Z,8.90
2023-05-04T12:04:32.610Z,4.78
2023-05-04T12:07:01.769Z,5.63
2023-05-04T12:09:29.077Z,7.30
2023-05-04T12:11:56.442Z,6.85
2023-05-04T12:14:30.565Z,13.25
2023-05-04T12:17:03.537Z,6.00
2023-05-04T12:19:31.334Z,5.15
2023-05-04T12:21:58.812Z,23.50
2023-05-04T12:24:28.582Z,6.50
2023-05-04T12:26:55.726Z,5.25
2023-05-04T12:29:22.868Z,9.57
2023-05-04T12:31:50.669Z,6.40
2023-05-04T12:34:17.782Z,11.90
2023-05-04T12:36:45.017Z,27.80
2023-05-04T12:39:12.164Z,5.13
2023-05-04T12:41:40.170Z,4.60
2023-05-04T12:44:08.706Z,4.07
2023-05-04T12:46:36.014Z,6.50
2023-05-04T12:49:03.363Z,16.02
2023-05-04T12:51:30.528Z,4.15
2023-05-04T12:53:58.113Z,9.15
2023-05-04T12:56:25.219Z,5.00
2023-05-04T12:58:52.360Z,5.80
2023-05-04T13:01:19.718Z,10.55
2023-05-04T13:03:46.981Z,14.48
2023-05-04T13:06:14.688Z,26.23
2023-05-04T13:08:42.010Z,12.20
2023-05-04T13:11:09.104Z,6.30
2023-05-04T13:13:37.407Z,5.45
2023-05-04T13:16:05.933Z,5.32
2023-05-04T13:18:36.190Z,6.43
2023-05-04T13:23:30.850Z,5.13
2023-05-04T13:25:58.022Z,7.10
2023-05-04T13:28:25.212Z,5.10
2023-05-04T13:30:52.665Z,6.82
2023-05-04T13:33:29.550Z,5.60
2023-05-04T13:35:58.359Z,10.70
2023-05-04T13:38:25.907Z,6.05
2023-05-04T13:40:53.054Z,8.35
2023-05-04T13:43:20.379Z,4.53
2023-05-04T13:45:48.336Z,6.88
2023-05-04T13:48:15.444Z,4.55
2023-05-04T13:50:42.617Z,5.72
2023-05-04T13:53:12.820Z,4.05
2023-05-04T13:58:07.475Z,7.22
2023-05-04T14:00:34.688Z,3.13
2023-05-04T14:03:02.194Z,7.45
2023-05-04T14:05:29.839Z,16.15
2023-05-04T14:07:57.517Z,16.17
2023-05-04T14:10:24.716Z,3.20
2023-05-04T14:12:51.903Z,10.50
2023-05-04T14:15:22.551Z,5.55
2023-05-04T14:17:51.326Z,4.60
2023-05-04T14:20:18.648Z,8.93
2023-05-04T14:22:45.966Z,5.82
2023-05-04T14:25:14.994Z,6.28
2023-05-04T14:27:45.074Z,4.72
2023-05-04T14:30:13.040Z,7.63
2023-05-04T14:32:41.133Z,7.45
2023-05-04T14:35:09.939Z,4.43
2023-05-04T14:37:38.361Z,6.47
2023-05-04T14:40:06.629Z,3.00
2023-05-04T14:42:34.223Z,8.48
2023-05-04T14:45:01.564Z,4.97
2023-05-04T14:47:29.541Z,5.68
2023-05-04T14:49:57.677Z,7.38
2023-05-04T14:52:25.108Z,6.72
2023-05-04T14:54:52.807Z,4.65
2023-05-04T14:57:19.984Z,10.55
2023-05-04T14:59:47.124Z,3.83
2023-05-04T15:02:14.883Z,4.30
2023-05-04T15:04:42.138Z,3.50
2023-05-04T15:07:09.473Z,3.28
2023-05-04T15:09:38.202Z,5.63
2023-05-04T15:12:05.516Z,4.68
2023-05-04T15:14:32.777Z,3.83
2023-05-04T15:16:59.913Z,3.53
2023-05-04T15:19:27.101Z,7.47
2023-05-04T15:21:54.249Z,5.10
2023-05-04T15:24:21.520Z,4.78
2023-05-04T15:26:48.717Z,8.57
2023-05-04T15:29:15.993Z,2.60
2023-05-04T15:31:43.189Z,5.28
2023-05-04T15:34:10.400Z,6.63
2023-05-04T15:36:37.528Z,5.78
2023-05-04T15:39:05.834Z,6.18
2023-05-04T15:41:32.945Z,10.40
2023-05-04T15:44:00.133Z,8.43
2023-05-04T15:46:27.502Z,7.10
2023-05-04T15:48:55.449Z,6.28
2023-05-04T15:51:22.558Z,4.22
2023-05-04T15:53:49.663Z,7.63
2023-05-04T15:56:16.848Z,2.47
2023-05-04T15:58:46.880Z,7.30
2023-05-04T16:01:14.649Z,4.93
2023-05-04T16:03:44.286Z,6.15
2023-05-04T16:06:12.572Z,5.05
2023-05-04T16:08:39.835Z,4.53
2023-05-04T16:11:07.734Z,6.35
2023-05-04T16:13:35.178Z,5.75
2023-05-04T16:16:02.355Z,5.70
2023-05-04T16:18:29.606Z,5.25
2023-05-04T16:20:56.811Z,4.97
2023-05-04T16:23:24.043Z,6.35
2023-05-04T16:25:51.152Z,4.40
2023-05-04T16:28:18.253Z,6.35
2023-05-04T16:30:45.667Z,6.03
2023-05-04T16:33:13.138Z,8.70
2023-05-04T16:35:41.365Z,6.45
2023-05-04T16:38:10.423Z,8.05
2023-05-04T16:40:37.596Z,9.45
2023-05-04T16:43:05.352Z,9.07
2023-05-04T16:45:33.008Z,7.15
2023-05-04T16:48:01.094Z,5.55
2023-05-04T16:50:29.723Z,5.65
2023-05-04T16:52:59.895Z,5.22
2023-05-04T16:55:27.413Z,5.55
2023-05-04T16:57:57.882Z,10.63
2023-05-04T17:00:25.964Z,8.25
2023-05-04T17:02:55.193Z,13.55
2023-05-04T17:05:22.515Z,8.63
2023-05-04T17:07:49.713Z,12.88
2023-05-04T17:10:18.284Z,8.65
2023-05-04T17:12:45.513Z,7.43
2023-05-04T17:15:12.896Z,4.95
2023-05-04T17:17:41.207Z,7.50
2023-05-04T17:20:09.456Z,5.78
2023-05-04T17:22:37.060Z,11.10
2023-05-04T17:25:04.328Z,6.35
2023-05-04T17:27:31.420Z,5.85
2023-05-04T17:29:58.534Z,5.25
2023-05-04T17:32:25.692Z,7.15
2023-05-04T17:34:52.835Z,9.20
2023-05-04T17:37:19.979Z,6.13
2023-05-04T17:39:47.220Z,8.30
2023-05-04T17:42:17.084Z,9.93
2023-05-04T17:44:44.578Z,10.23
2023-05-04T17:47:11.807Z,14.05
2023-05-04T17:49:38.938Z,15.82
2023-05-04T17:52:06.182Z,12.93
2023-05-04T17:54:33.315Z,14.65
2023-05-04T17:57:00.660Z,12.32
2023-05-04T17:59:28.018Z,14.27
2023-05-04T18:01:55.215Z,12.77
2023-05-04T18:04:22.422Z,15.48
2023-05-04T18:06:50.826Z,12.77
2023-05-04T18:09:19.777Z,15.07
2023-05-04T18:11:47.594Z,15.18
2023-05-04T18:14:14.811Z,15.23
2023-05-04T18:16:42.103Z,19.60
2023-05-04T18:19:09.311Z,16.38
2023-05-04T18:21:37.128Z,24.38
2023-05-04T18:24:04.863Z,18.85
2023-05-04T18:26:34.044Z,22.60
2023-05-04T18:29:11.312Z,19.20
2023-05-04T18:31:44.745Z,21.70
2023-05-04T18:34:12.209Z,26.20
2023-05-04T18:36:41.018Z,28.50
2023-05-04T18:39:08.920Z,31.35
2023-05-04T18:41:36.190Z,28.30
2023-05-04T18:44:03.609Z,33.53
2023-05-04T18:46:31.329Z,26.13
2023-05-04T18:49:00.524Z,27.50
2023-05-04T18:51:28.014Z,29.23
2023-05-04T18:57:37.122Z,28.63
2023-05-04T19:00:12.820Z,33.78
2023-05-04T19:02:40.162Z,39.35
2023-05-04T19:05:09.766Z,38.75
2023-05-04T19:07:38.302Z,35.78
2023-05-04T19:10:09.120Z,34.30
2023-05-04T19:12:36.596Z,31.58
2023-05-04T19:15:11.817Z,31.88
2023-05-04T19:17:40.380Z,37.08
2023-05-04T19:20:08.931Z,54.30
2023-05-04T19:22:36.404Z,67.30
2023-05-04T19:25:04.425Z,76.75
2023-05-04T19:27:31.672Z,69.25
2023-05-04T19:29:58.777Z,70.97
2023-05-04T19:32:26.514Z,67.57
2023-05-04T19:34:53.843Z,48.08
2023-05-04T19:37:21.479Z,47.90
2023-05-04T19:39:48.735Z,42.58
2023-05-04T19:42:16.241Z,38.90
2023-05-04T19:44:44.136Z,42.15
2023-05-04T19:47:11.417Z,41.70
2023-05-04T19:49:39.099Z,41.50
2023-05-04T19:52:07.255Z,44.08
2023-05-04T19:54:34.876Z,43.33
2023-05-04T19:57:01.979Z,42.00
2023-05-04T19:59:31.931Z,44.13
2023-05-04T20:02:00.221Z,41.30
2023-05-04T20:04:27.559Z,42.78
2023-05-04T20:06:54.765Z,40.45
2023-05-04T20:09:21.855Z,40.72
2023-05-04T20:11:49.011Z,40.88
2023-05-04T20:14:16.309Z,40.08
2023-05-04T20:16:43.438Z,40.03
2023-05-04T20:19:10.594Z,39.67
2023-05-04T20:21:40.252Z,37.30
2023-05-04T20:24:08.441Z,43.40
2023-05-04T20:26:35.586Z,35.50
2023-05-04T20:29:02.774Z,36.88
2023-05-04T20:31:30.297Z,37.92
2023-05-04T20:33:57.454Z,40.15
2023-05-04T20:36:24.654Z,37.20
2023-05-04T20:38:51.936Z,44.25
2023-05-04T20:41:19.024Z,43.58
2023-05-04T20:43:46.238Z,42.58
2023-05-04T20:46:13.427Z,44.60
2023-05-04T20:48:40.780Z,41.00
2023-05-04T20:51:14.803Z,45.45
2023-05-04T20:53:42.515Z,42.92
2023-05-04T20:56:10.225Z,40.25
2023-05-04T20:58:38.443Z,43.85
2023-05-04T21:01:06.111Z,45.10
2023-05-04T21:03:34.093Z,43.67
2023-05-04T21:06:02.140Z,50.20
2023-05-04T21:08:29.309Z,49.83
2023-05-04T21:10:56.404Z,59.03
2023-05-04T21:13:23.659Z,68.25
2023-05-04T21:15:51.338Z,87.40
2023-05-04T21:18:19.564Z,86.05
2023-05-04T21:20:48.100Z,74.90
2023-05-04T21:23:15.296Z,64.07
2023-05-04T21:25:42.568Z,74.97
2023-05-04T21:28:09.853Z,70.28
2023-05-04T21:30:37.233Z,68.90
2023-05-04T21:33:04.388Z,72.40
2023-05-04T21:35:31.616Z,70.10
2023-05-04T21:37:59.561Z,61.05
2023-05-04T21:40:29.895Z,56.40
2023-05-04T21:42:56.991Z,56.00
2023-05-04T21:45:24.091Z,47.78
2023-05-04T21:47:51.421Z,51.47
2023-05-04T21:50:18.556Z,47.22
2023-05-04T21:52:45.643Z,48.85
2023-05-04T21:55:12.754Z,48.22
2023-05-04T21:57:39.859Z,44.78
2023-05-04T22:00:13.100Z,43.60
2023-05-04T22:02:40.258Z,44.90
2023-05-04T22:05:07.462Z,46.25
2023-05-04T22:07:36.597Z,45.55
2023-05-04T22:10:04.514Z,40.53
2023-05-04T22:12:31.787Z,38.00
2023-05-04T22:14:58.895Z,39.75
2023-05-04T22:17:26.067Z,39.22
2023-05-04T22:19:53.239Z,36.25
2023-05-04T22:22:20.438Z,38.53
2023-05-04T22:24:47.549Z,35.13
2023-05-04T22:27:14.649Z,39.58
2023-05-04T22:29:42.017Z,39.83
2023-05-04T22:32:09.166Z,34.55
2023-05-04T22:34:36.387Z,37.65
2023-05-04T22:37:03.580Z,35.58
2023-05-04T22:39:30.660Z,35.22
2023-05-04T22:41:57.769Z,35.88
2023-05-04T22:44:24.914Z,39.55
2023-05-04T22:46:51.996Z,39.45
2023-05-04T22:49:19.175Z,37.75
2023-05-04T22:51:46.416Z,39.28
2023-05-04T22:54:13.485Z,38.55
2023-05-04T22:56:40.571Z,42.78
2023-05-04T22:59:07.724Z,41.40
2023-05-04T23:01:34.961Z,41.72
2023-05-04T23:04:02.133Z,39.22
2023-05-04T23:06:29.333Z,40.53
2023-05-04T23:08:56.757Z,40.03
2023-05-04T23:11:23.935Z,37.20
2023-05-04T23:13:51.130Z,36.15
2023-05-04T23:16:18.296Z,39.13
2023-05-04T23:18:45.503Z,39.00
2023-05-04T23:21:12.646Z,37.65
2023-05-04T23:23:41.360Z,32.92
2023-05-04T23:26:08.795Z,36.78
2023-05-04T23:28:36.014Z,36.90
2023-05-04T23:31:03.385Z,35.58
2023-05-04T23:33:30.602Z,32.22
2023-05-04T23:35:57.689Z,32.88
2023-05-04T23:38:25.018Z,34.38
2023-05-04T23:40:52.566Z,30.58
2023-05-04T23:43:19.695Z,33.05
2023-05-04T23:45:46.841Z,34.03
2023-05-04T23:48:13.967Z,35.53
2023-05-04T23:50:41.100Z,31.33
2023-05-04T23:53:08.295Z,33.67
2023-05-04T23:55:35.921Z,32.45
2023-05-04T23:58:03.058Z,33.25
